Roxton, Texas
Current Conditions -  °F | °C
As of 3:55 PM on Friday 28 Nov 2014 (Local Time) from KPRX Reporting Station
Clear Clear  
Wind Chill: 66°   Ceiling: Unl
Heat Index: 66°   Visibility: 10mi
Dew Point: 46°   Wind: 18mph
Humidity: 49%   Direction: 190°S
Pressure: 30.06"   Gusts: 26mph
Location:  33.55°N, 95.73°W
Report Text: KPRX 282155Z 19016G23KT 10SM CLR 19/08 A3006 RMK AO1
Loading
Personal Weather Stations






























Interactive Weather Map New forecast layout! Learn more

10-Day Weather Forecast

Advertisements
Track Severe Weather on mobile